createdAt,value
2022-08-11T00:02:04.504Z,20.20
2022-08-11T00:07:06.829Z,20.20
2022-08-11T00:12:18.163Z,20.20
2022-08-11T00:17:25.919Z,20.10
2022-08-11T00:22:29.868Z,20.10
2022-08-11T00:27:34.929Z,20.00
2022-08-11T00:32:43.982Z,20.00
2022-08-11T00:37:50.554Z,19.90
2022-08-11T00:43:20.222Z,20.10
2022-08-11T00:48:44.919Z,19.80
2022-08-11T00:54:19.329Z,19.80
2022-08-11T00:59:52.507Z,19.80
2022-08-11T01:05:25.735Z,19.70
2022-08-11T01:10:49.703Z,19.60
2022-08-11T01:16:10.413Z,19.50
2022-08-11T01:21:31.496Z,19.50
2022-08-11T01:27:01.444Z,19.50
2022-08-11T01:32:36.219Z,19.20
2022-08-11T01:38:15.971Z,19.30
2022-08-11T01:44:14.574Z,19.40
2022-08-11T01:50:08.780Z,19.10
2022-08-11T01:55:19.578Z,19.20
2022-08-11T02:00:28.921Z,19.10
2022-08-11T02:06:01.218Z,19.30
2022-08-11T02:11:31.681Z,19.00
2022-08-11T02:16:47.098Z,19.20
2022-08-11T02:22:22.379Z,18.80
2022-08-11T02:27:34.915Z,18.90
2022-08-11T02:33:00.314Z,18.90
2022-08-11T02:38:21.868Z,18.80
2022-08-11T02:43:29.392Z,18.90
2022-08-11T02:49:11.806Z,18.80
2022-08-11T02:54:35.275Z,18.70
2022-08-11T02:59:52.710Z,18.60
2022-08-11T03:05:10.651Z,18.50
2022-08-11T03:11:09.477Z,18.40
2022-08-11T03:16:48.153Z,18.60
2022-08-11T03:22:07.876Z,18.30
2022-08-11T03:27:22.577Z,18.30
2022-08-11T03:32:33.043Z,18.40
2022-08-11T03:37:54.485Z,18.10
2022-08-11T03:43:03.405Z,18.30
2022-08-11T03:48:11.773Z,18.30
2022-08-11T03:53:17.703Z,18.40
2022-08-11T03:58:46.496Z,18.20
2022-08-11T04:04:18.620Z,18.30
2022-08-11T04:09:39.218Z,18.20
2022-08-11T04:15:15.125Z,18.10
2022-08-11T04:20:26.560Z,17.90
2022-08-11T04:31:02.695Z,18.00
2022-08-11T04:36:50.746Z,18.10
2022-08-11T04:42:44.590Z,18.00
2022-08-11T04:48:40.823Z,18.00
2022-08-11T04:54:45.117Z,17.90
2022-08-11T05:00:28.793Z,18.10
2022-08-11T05:05:39.803Z,17.90
2022-08-11T05:11:31.740Z,18.00
2022-08-11T05:17:09.774Z,18.10
2022-08-11T05:22:32.209Z,18.10
2022-08-11T05:28:18.366Z,18.20
2022-08-11T05:33:44.321Z,18.30
2022-08-11T05:39:19.965Z,18.40
2022-08-11T05:44:57.662Z,18.80
2022-08-11T05:50:30.995Z,18.90
2022-08-11T05:56:02.899Z,19.10
2022-08-11T06:01:14.258Z,19.30
2022-08-11T06:06:16.860Z,19.30
2022-08-11T06:11:19.356Z,19.60
2022-08-11T06:16:42.718Z,20.30
2022-08-11T06:21:47.559Z,20.30
2022-08-11T06:32:16.428Z,21.40
2022-08-11T06:37:42.237Z,21.90
2022-08-11T06:42:51.620Z,22.70
2022-08-11T06:48:00.704Z,23.20
2022-08-11T06:53:10.070Z,23.80
2022-08-11T06:58:37.715Z,23.60
2022-08-11T07:03:54.468Z,24.10
2022-08-11T07:09:42.593Z,24.50
2022-08-11T07:15:13.672Z,24.60
2022-08-11T07:20:35.733Z,24.70
2022-08-11T07:26:00.483Z,24.90
2022-08-11T07:31:13.762Z,25.10
2022-08-11T07:36:18.038Z,25.40
2022-08-11T07:41:23.569Z,25.40
2022-08-11T07:46:44.437Z,25.80
2022-08-11T07:52:05.967Z,26.00
2022-08-11T07:58:04.409Z,26.20
2022-08-11T08:03:09.420Z,26.40
2022-08-11T08:08:32.802Z,26.60
2022-08-11T08:13:54.217Z,26.80
2022-08-11T08:18:56.489Z,27.10
2022-08-11T08:23:59.010Z,27.20
2022-08-11T08:29:22.362Z,27.50
2022-08-11T08:34:25.365Z,27.80
2022-08-11T08:39:28.930Z,28.00
2022-08-11T08:44:39.006Z,28.50
2022-08-11T08:49:53.529Z,28.10
2022-08-11T08:54:56.938Z,28.40
2022-08-11T09:00:01.262Z,28.80
2022-08-11T09:05:05.056Z,28.90
2022-08-11T09:10:09.976Z,29.20
2022-08-11T09:15:13.193Z,29.40
2022-08-11T09:20:24.920Z,29.60
2022-08-11T09:25:49.476Z,29.80
2022-08-11T09:30:55.591Z,30.00
2022-08-11T09:36:20.267Z,30.20
2022-08-11T09:41:25.582Z,30.30
2022-08-11T09:46:30.275Z,30.30
2022-08-11T09:51:34.084Z,30.30
2022-08-11T09:56:54.947Z,29.90
2022-08-11T10:02:03.494Z,30.40
2022-08-11T10:07:10.523Z,30.70
2022-08-11T10:12:20.132Z,31.00
2022-08-11T10:17:23.243Z,31.30
2022-08-11T10:22:45.553Z,31.50
2022-08-11T10:28:33.015Z,31.70
2022-08-11T10:33:44.182Z,31.90
2022-08-11T10:38:59.698Z,32.20
2022-08-11T10:44:05.368Z,32.40
2022-08-11T10:49:09.223Z,32.50
2022-08-11T10:54:30.641Z,32.60
2022-08-11T10:59:35.146Z,32.70
2022-08-11T11:05:09.185Z,32.70
2022-08-11T11:10:11.583Z,32.80
2022-08-11T11:15:40.334Z,32.90
2022-08-11T11:20:47.884Z,33.00
2022-08-11T11:26:14.461Z,33.20
2022-08-11T11:31:50.475Z,33.40
2022-08-11T11:36:56.683Z,33.60
2022-08-11T11:42:05.026Z,33.80
2022-08-11T11:47:07.889Z,34.10
2022-08-11T11:52:20.305Z,34.30
2022-08-11T11:57:42.424Z,34.60
2022-08-11T12:03:09.352Z,34.80
2022-08-11T12:08:15.972Z,35.00
2022-08-11T12:13:37.660Z,35.10
2022-08-11T12:18:42.773Z,35.20
2022-08-11T12:24:05.943Z,35.40
2022-08-11T12:29:11.483Z,35.60
2022-08-11T12:34:16.571Z,35.90
2022-08-11T12:40:17.028Z,36.10
2022-08-11T12:45:27.427Z,36.20
2022-08-11T12:50:48.740Z,36.30
2022-08-11T12:56:11.135Z,36.40
2022-08-11T13:01:32.184Z,36.50
2022-08-11T13:06:34.520Z,36.70
2022-08-11T13:11:57.620Z,36.90
2022-08-11T13:17:19.828Z,37.20
2022-08-11T13:22:24.434Z,37.50
2022-08-11T13:27:27.399Z,37.70
2022-08-11T13:32:29.797Z,38.10
2022-08-11T13:38:19.343Z,38.00
2022-08-11T13:42:59.099Z,38.30
2022-08-11T13:48:03.355Z,38.60
2022-08-11T13:53:05.945Z,38.80
2022-08-11T13:58:20.709Z,39.20
2022-08-11T14:04:31.021Z,39.50
2022-08-11T14:08:58.842Z,40.00
2022-08-11T14:14:04.317Z,40.50
2022-08-11T14:19:11.162Z,40.80
2022-08-11T14:24:16.220Z,41.30
2022-08-11T14:29:21.665Z,41.80
2022-08-11T14:34:30.185Z,42.30
2022-08-11T14:39:38.467Z,42.70
2022-08-11T14:45:58.388Z,43.10
2022-08-11T14:50:54.126Z,43.60
2022-08-11T14:56:14.617Z,44.30
2022-08-11T15:01:35.350Z,44.80
2022-08-11T15:06:37.902Z,45.40
2022-08-11T15:12:00.176Z,45.70
2022-08-11T15:17:09.454Z,45.90
2022-08-11T15:22:30.369Z,46.20
2022-08-11T15:27:52.817Z,46.70
2022-08-11T15:33:15.251Z,47.10
2022-08-11T15:38:19.893Z,47.50
2022-08-11T15:44:01.662Z,47.90
2022-08-11T15:49:21.704Z,48.40
2022-08-11T15:54:28.806Z,48.90
2022-08-11T15:59:51.936Z,49.10
2022-08-11T16:04:55.315Z,49.20
2022-08-11T16:10:10.775Z,49.10
2022-08-11T16:15:36.578Z,49.10
2022-08-11T16:20:38.835Z,48.90
2022-08-11T16:25:57.967Z,48.50
2022-08-11T16:31:10.950Z,48.50
2022-08-11T16:36:33.113Z,48.60
2022-08-11T16:41:56.500Z,48.80
2022-08-11T16:46:59.935Z,48.40
2022-08-11T16:52:04.340Z,47.10
2022-08-11T16:57:30.798Z,45.60
2022-08-11T17:02:55.730Z,44.10
2022-08-11T17:08:20.883Z,42.70
2022-08-11T17:13:33.519Z,41.40
2022-08-11T17:18:46.592Z,40.20
2022-08-11T17:23:58.792Z,39.20
2022-08-11T17:29:02.018Z,38.40
2022-08-11T17:34:25.178Z,37.70
2022-08-11T17:39:30.679Z,37.00
2022-08-11T17:44:53.047Z,36.30
2022-08-11T17:49:55.818Z,35.80
2022-08-11T17:55:52.027Z,35.40
2022-08-11T18:00:54.937Z,35.00
2022-08-11T18:06:00.768Z,34.50
2022-08-11T18:12:07.161Z,34.20
2022-08-11T18:17:06.231Z,33.80
2022-08-11T18:22:31.831Z,33.40
2022-08-11T18:27:54.530Z,33.00
2022-08-11T18:33:44.802Z,32.70
2022-08-11T18:39:02.259Z,32.30
2022-08-11T18:44:25.960Z,31.90
2022-08-11T18:50:04.191Z,31.60
2022-08-11T18:55:33.302Z,31.20
2022-08-11T19:00:56.173Z,30.90
2022-08-11T19:06:38.754Z,30.50
2022-08-11T19:12:01.994Z,30.20
2022-08-11T19:17:45.156Z,29.90
2022-08-11T19:23:07.313Z,29.70
2022-08-11T19:28:28.753Z,29.30
2022-08-11T19:34:00.340Z,29.10
2022-08-11T19:39:31.529Z,28.90
2022-08-11T19:44:53.576Z,28.60
2022-08-11T19:50:18.828Z,28.40
2022-08-11T19:55:45.133Z,28.20
2022-08-11T20:01:06.962Z,28.00
2022-08-11T20:06:34.162Z,27.80
2022-08-11T20:11:59.515Z,27.50
2022-08-11T20:17:22.552Z,27.30
2022-08-11T20:22:46.039Z,27.00
2022-08-11T20:28:08.932Z,26.90
2022-08-11T20:33:29.938Z,26.60
2022-08-11T20:38:51.935Z,26.30
2022-08-11T20:44:15.316Z,26.00
2022-08-11T20:49:45.079Z,25.80
2022-08-11T21:00:55.344Z,25.30
2022-08-11T21:06:31.324Z,24.90
2022-08-11T21:11:54.740Z,24.80
2022-08-11T21:17:27.520Z,24.50
2022-08-11T21:23:05.362Z,24.40
2022-08-11T21:28:29.180Z,24.30
2022-08-11T21:33:50.514Z,24.10
2022-08-11T21:39:12.018Z,23.80
2022-08-11T21:44:34.024Z,23.60
2022-08-11T21:49:58.562Z,23.50
2022-08-11T21:55:19.946Z,22.90
2022-08-11T22:00:40.866Z,23.10
2022-08-11T22:06:02.177Z,23.00
2022-08-11T22:11:31.802Z,22.80
2022-08-11T22:16:54.391Z,22.60
2022-08-11T22:22:18.186Z,22.20
2022-08-11T22:27:46.642Z,22.90
2022-08-11T22:33:07.608Z,22.20
2022-08-11T22:38:28.459Z,22.30
2022-08-11T22:43:49.242Z,22.30
2022-08-11T22:49:11.458Z,22.20
2022-08-11T22:54:32.431Z,22.10
2022-08-11T22:59:54.970Z,22.00
2022-08-11T23:05:17.242Z,22.10
2022-08-11T23:10:39.651Z,22.00
2022-08-11T23:16:02.408Z,21.70
2022-08-11T23:21:23.301Z,21.40
2022-08-11T23:26:47.271Z,21.50
2022-08-11T23:32:09.851Z,21.50
2022-08-11T23:37:30.712Z,21.50
2022-08-11T23:42:56.602Z,21.70
2022-08-11T23:48:19.633Z,21.30
2022-08-11T23:53:40.529Z,21.10
2022-08-11T23:59:01.782Z,21.10
